CMB479 EBOS-EPRZ
Flight info
| Callsign | CMB479 |
|---|---|
| Flight time | 1h 47m |
| Altitude | 35000 |
| Route | FERDI UL607 REMBA DCT NVO DCT TOLTA DCT LARET DCT DESAR DCT BEBKU DCT LASIS L986 SUDOL DCT KOTEK/N0470F270 L981 ETITI |
| Aircraft | MD11/H-SDE1E2E3FGHIJ2J3J4J5M1RWXY/LB1D1 |
Departure
| Time | 2026-05-07 12:18 |
|---|---|
| Airport | Ostend-Bruges International Airport (EBOS) |
Arrival
| Time | 2026-05-07 14:05 |
|---|---|
| Airport | Rzeszów-Jasionka Airport (EPRZ) |
| Time | Latitude | Longitude | Altitude | Speed | Heading |
|---|---|---|---|---|---|
| 2026-05-07 11:48 | 51.19849 | 2.89651 | 23 ft | 0 kts | 99° |
| 2026-05-07 12:04 | 51.19850 | 2.89649 | 23 ft | 2 kts | 99° |
| 2026-05-07 12:04 | 51.19854 | 2.89609 | 25 ft | 4 kts | 99° |
| 2026-05-07 12:04 | 51.19858 | 2.89569 | 24 ft | 2 kts | 100° |
| 2026-05-07 12:04 | 51.19861 | 2.89534 | 26 ft | 4 kts | 71° |
| 2026-05-07 12:05 | 51.19851 | 2.89507 | 28 ft | 4 kts | 24° |
| 2026-05-07 12:05 | 51.19826 | 2.89496 | 23 ft | 4 kts | 9° |
| 2026-05-07 12:05 | 51.19814 | 2.89493 | 27 ft | 1 kts | 9° |
| 2026-05-07 12:09 | 51.19819 | 2.89494 | 23 ft | 2 kts | 9° |
| 2026-05-07 12:09 | 51.19849 | 2.89502 | 26 ft | 7 kts | 9° |
| 2026-05-07 12:09 | 51.19907 | 2.89518 | 26 ft | 10 kts | 9° |
| 2026-05-07 12:10 | 51.19977 | 2.89539 | 27 ft | 9 kts | 16° |
| 2026-05-07 12:10 | 51.20031 | 2.89577 | 26 ft | 8 kts | 30° |
| 2026-05-07 12:10 | 51.20085 | 2.89652 | 28 ft | 13 kts | 46° |
| 2026-05-07 12:10 | 51.20151 | 2.89763 | 28 ft | 14 kts | 46° |
| 2026-05-07 12:11 | 51.20219 | 2.89855 | 26 ft | 12 kts | 29° |
| 2026-05-07 12:11 | 51.20299 | 2.89843 | 26 ft | 11 kts | 318° |
| 2026-05-07 12:11 | 51.20320 | 2.89728 | 23 ft | 13 kts | 268° |
| 2026-05-07 12:11 | 51.20302 | 2.89572 | 25 ft | 15 kts | 257° |
| 2026-05-07 12:12 | 51.20279 | 2.89421 | 26 ft | 14 kts | 256° |
| 2026-05-07 12:12 | 51.20252 | 2.89246 | 24 ft | 18 kts | 256° |
| 2026-05-07 12:12 | 51.20222 | 2.89047 | 28 ft | 20 kts | 256° |
| 2026-05-07 12:12 | 51.20186 | 2.88806 | 27 ft | 25 kts | 256° |
| 2026-05-07 12:13 | 51.20142 | 2.88511 | 26 ft | 30 kts | 256° |
| 2026-05-07 12:13 | 51.20087 | 2.88151 | 21 ft | 36 kts | 257° |
| 2026-05-07 12:13 | 51.20027 | 2.87753 | 22 ft | 36 kts | 256° |
| 2026-05-07 12:13 | 51.19972 | 2.87380 | 28 ft | 33 kts | 256° |
| 2026-05-07 12:14 | 51.19921 | 2.87045 | 26 ft | 30 kts | 256° |
| 2026-05-07 12:14 | 51.19875 | 2.86734 | 25 ft | 28 kts | 255° |
| 2026-05-07 12:14 | 51.19831 | 2.86446 | 25 ft | 26 kts | 256° |
| 2026-05-07 12:14 | 51.19791 | 2.86181 | 27 ft | 23 kts | 256° |
| 2026-05-07 12:15 | 51.19756 | 2.85947 | 27 ft | 21 kts | 256° |
| 2026-05-07 12:15 | 51.19723 | 2.85730 | 27 ft | 19 kts | 257° |
| 2026-05-07 12:15 | 51.19696 | 2.85532 | 27 ft | 17 kts | 264° |
| 2026-05-07 12:15 | 51.19684 | 2.85384 | 27 ft | 12 kts | 259° |
| 2026-05-07 12:16 | 51.19665 | 2.85305 | 28 ft | 1 kts | 216° |
| 2026-05-07 12:16 | 51.19653 | 2.85312 | 26 ft | 2 kts | 153° |
| 2026-05-07 12:16 | 51.19653 | 2.85337 | 29 ft | 3 kts | 76° |
| 2026-05-07 12:16 | 51.19669 | 2.85372 | 24 ft | 6 kts | 56° |
| 2026-05-07 12:17 | 51.19675 | 2.85406 | 27 ft | 4 kts | 81° |
| 2026-05-07 12:17 | 51.19680 | 2.85440 | 24 ft | 0 kts | 77° |
| 2026-05-07 12:17 | 51.19689 | 2.85497 | 26 ft | 14 kts | 76° |
| 2026-05-07 12:18 | 51.19728 | 2.85760 | 26 ft | 38 kts | 76° |
| 2026-05-07 12:18 | 51.19851 | 2.86576 | 27 ft | 114 kts | 76° |
| 2026-05-07 12:18 | 51.20104 | 2.88154 | 52 ft | 172 kts | 73° |
| 2026-05-07 12:18 | 51.20431 | 2.90049 | 691 ft | 183 kts | 73° |
| 2026-05-07 12:19 | 51.20754 | 2.92002 | 1690 ft | 178 kts | 76° |
| 2026-05-07 12:19 | 51.21019 | 2.93894 | 2654 ft | 175 kts | 78° |
| 2026-05-07 12:19 | 51.21285 | 2.95855 | 3389 ft | 189 kts | 77° |
| 2026-05-07 12:19 | 51.21608 | 2.98100 | 3620 ft | 226 kts | 77° |
| 2026-05-07 12:20 | 51.21788 | 3.00733 | 4029 ft | 252 kts | 95° |
| 2026-05-07 12:20 | 51.21238 | 3.03518 | 4457 ft | 277 kts | 122° |
| 2026-05-07 12:20 | 51.20047 | 3.05968 | 5437 ft | 272 kts | 131° |
| 2026-05-07 12:20 | 51.18841 | 3.08218 | 6631 ft | 272 kts | 131° |
| 2026-05-07 12:21 | 51.17613 | 3.10550 | 7510 ft | 276 kts | 130° |
| 2026-05-07 12:21 | 51.16386 | 3.12937 | 8354 ft | 281 kts | 129° |
| 2026-05-07 12:21 | 51.15146 | 3.15395 | 9206 ft | 286 kts | 129° |
| 2026-05-07 12:21 | 51.13902 | 3.17893 | 10031 ft | 290 kts | 128° |
| 2026-05-07 12:22 | 51.12597 | 3.20531 | 10273 ft | 317 kts | 128° |
| 2026-05-07 12:22 | 51.11180 | 3.23412 | 10406 ft | 345 kts | 128° |
| 2026-05-07 12:22 | 51.09670 | 3.26493 | 10910 ft | 358 kts | 128° |
| 2026-05-07 12:22 | 51.08126 | 3.29650 | 11686 ft | 363 kts | 128° |
| 2026-05-07 12:23 | 51.06569 | 3.32833 | 12484 ft | 368 kts | 128° |
| 2026-05-07 12:23 | 51.05006 | 3.36029 | 13230 ft | 372 kts | 128° |
| 2026-05-07 12:23 | 51.03406 | 3.39296 | 13956 ft | 377 kts | 128° |
| 2026-05-07 12:23 | 51.01783 | 3.42607 | 14611 ft | 381 kts | 128° |
| 2026-05-07 12:24 | 51.00148 | 3.45939 | 15270 ft | 385 kts | 128° |
| 2026-05-07 12:24 | 50.98492 | 3.49309 | 15895 ft | 388 kts | 128° |
| 2026-05-07 12:24 | 50.96823 | 3.52702 | 16529 ft | 392 kts | 129° |
| 2026-05-07 12:24 | 50.95136 | 3.56125 | 17162 ft | 396 kts | 129° |
| 2026-05-07 12:25 | 50.93433 | 3.59577 | 17780 ft | 399 kts | 129° |
| 2026-05-07 12:25 | 50.91751 | 3.63116 | 18323 ft | 404 kts | 123° |
| 2026-05-07 12:25 | 50.90480 | 3.67111 | 18844 ft | 408 kts | 112° |
| 2026-05-07 12:25 | 50.89540 | 3.71374 | 19352 ft | 412 kts | 108° |
| 2026-05-07 12:26 | 50.88726 | 3.75751 | 19852 ft | 415 kts | 107° |
| 2026-05-07 12:26 | 50.87941 | 3.80166 | 20345 ft | 418 kts | 107° |
| 2026-05-07 12:26 | 50.87141 | 3.84612 | 20831 ft | 421 kts | 107° |
| 2026-05-07 12:26 | 50.86317 | 3.89074 | 21344 ft | 423 kts | 107° |
| 2026-05-07 12:27 | 50.85471 | 3.93557 | 21853 ft | 426 kts | 108° |
| 2026-05-07 12:27 | 50.84607 | 3.98061 | 22355 ft | 430 kts | 108° |
| 2026-05-07 12:27 | 50.83739 | 4.02549 | 22867 ft | 433 kts | 108° |
| 2026-05-07 12:27 | 50.82849 | 4.07119 | 23394 ft | 436 kts | 108° |
| 2026-05-07 12:28 | 50.81950 | 4.11724 | 23865 ft | 439 kts | 108° |
| 2026-05-07 12:28 | 50.81045 | 4.16346 | 24327 ft | 442 kts | 108° |
| 2026-05-07 12:28 | 50.80130 | 4.21006 | 24769 ft | 445 kts | 108° |
| 2026-05-07 12:28 | 50.79208 | 4.25694 | 25232 ft | 448 kts | 108° |
| 2026-05-07 12:29 | 50.78278 | 4.30413 | 25702 ft | 451 kts | 108° |
| 2026-05-07 12:29 | 50.77341 | 4.35156 | 26155 ft | 454 kts | 108° |
| 2026-05-07 12:29 | 50.76397 | 4.39926 | 26608 ft | 457 kts | 108° |
| 2026-05-07 12:29 | 50.75443 | 4.44730 | 27063 ft | 460 kts | 108° |
| 2026-05-07 12:30 | 50.74480 | 4.49569 | 27513 ft | 463 kts | 108° |
| 2026-05-07 12:30 | 50.73508 | 4.54438 | 27932 ft | 466 kts | 108° |
| 2026-05-07 12:30 | 50.72531 | 4.59328 | 28377 ft | 469 kts | 108° |
| 2026-05-07 12:30 | 50.71562 | 4.64193 | 28790 ft | 472 kts | 108° |
| 2026-05-07 12:31 | 50.70585 | 4.69153 | 29223 ft | 475 kts | 108° |
| 2026-05-07 12:31 | 50.69610 | 4.74150 | 29633 ft | 478 kts | 108° |
| 2026-05-07 12:31 | 50.68636 | 4.79171 | 30036 ft | 480 kts | 108° |
| 2026-05-07 12:31 | 50.67656 | 4.84223 | 30356 ft | 483 kts | 108° |
| 2026-05-07 12:32 | 50.66776 | 4.89353 | 30652 ft | 486 kts | 101° |
| 2026-05-07 12:32 | 50.66388 | 4.94636 | 31022 ft | 486 kts | 91° |
| 2026-05-07 12:32 | 50.66579 | 4.99953 | 31399 ft | 486 kts | 82° |
| 2026-05-07 12:32 | 50.67151 | 5.05213 | 31774 ft | 486 kts | 78° |
| 2026-05-07 12:33 | 50.68519 | 5.15653 | 32536 ft | 485 kts | 79° |
| 2026-05-07 12:33 | 50.69143 | 5.20885 | 32889 ft | 485 kts | 80° |
| 2026-05-07 12:33 | 50.69708 | 5.26070 | 33245 ft | 484 kts | 81° |
| 2026-05-07 12:34 | 50.70242 | 5.31313 | 33604 ft | 484 kts | 81° |
| 2026-05-07 12:34 | 50.70754 | 5.36558 | 33937 ft | 484 kts | 81° |
| 2026-05-07 12:34 | 50.71257 | 5.41802 | 34240 ft | 483 kts | 81° |
| 2026-05-07 12:34 | 50.71756 | 5.47042 | 34490 ft | 483 kts | 81° |
| 2026-05-07 12:35 | 50.72255 | 5.52300 | 34739 ft | 483 kts | 81° |
| 2026-05-07 12:35 | 50.72751 | 5.57538 | 34920 ft | 484 kts | 81° |
| 2026-05-07 12:35 | 50.73747 | 5.68072 | 34975 ft | 486 kts | 81° |
| 2026-05-07 12:36 | 50.74736 | 5.78634 | 34964 ft | 486 kts | 82° |
| 2026-05-07 12:36 | 50.75710 | 5.89130 | 34971 ft | 485 kts | 82° |
| 2026-05-07 12:37 | 50.76681 | 5.99706 | 34952 ft | 485 kts | 82° |
| 2026-05-07 12:37 | 50.77635 | 6.10210 | 34955 ft | 485 kts | 82° |
| 2026-05-07 12:38 | 50.78584 | 6.20769 | 34953 ft | 484 kts | 82° |
| 2026-05-07 12:38 | 50.79487 | 6.31329 | 34952 ft | 484 kts | 82° |
| 2026-05-07 12:39 | 50.80373 | 6.41837 | 34956 ft | 484 kts | 82° |
| 2026-05-07 12:39 | 50.81282 | 6.52400 | 34957 ft | 484 kts | 82° |
| 2026-05-07 12:40 | 50.82342 | 6.62680 | 34956 ft | 484 kts | 74° |
| 2026-05-07 12:40 | 50.84911 | 6.72481 | 34961 ft | 482 kts | 62° |
| 2026-05-07 12:41 | 50.88095 | 6.81854 | 34954 ft | 482 kts | 61° |
| 2026-05-07 12:41 | 50.91191 | 6.91216 | 34954 ft | 482 kts | 62° |
| 2026-05-07 12:42 | 50.94209 | 7.00736 | 34959 ft | 482 kts | 63° |
| 2026-05-07 12:42 | 50.97187 | 7.10284 | 34957 ft | 483 kts | 63° |
| 2026-05-07 12:43 | 51.00142 | 7.19797 | 34956 ft | 483 kts | 63° |
| 2026-05-07 12:43 | 51.03112 | 7.29380 | 34952 ft | 483 kts | 63° |
| 2026-05-07 12:44 | 51.06073 | 7.38971 | 34952 ft | 483 kts | 63° |
| 2026-05-07 12:44 | 51.09028 | 7.48575 | 34949 ft | 483 kts | 63° |
| 2026-05-07 12:45 | 51.11980 | 7.58208 | 34948 ft | 484 kts | 63° |
| 2026-05-07 12:45 | 51.14901 | 7.67780 | 34950 ft | 483 kts | 63° |
| 2026-05-07 12:46 | 51.17838 | 7.77443 | 34951 ft | 483 kts | 63° |
| 2026-05-07 12:46 | 51.20739 | 7.87123 | 34950 ft | 483 kts | 64° |
| 2026-05-07 12:47 | 51.23609 | 7.96784 | 34951 ft | 483 kts | 64° |
| 2026-05-07 12:47 | 51.26506 | 8.06477 | 34957 ft | 483 kts | 64° |
| 2026-05-07 12:48 | 51.29402 | 8.16155 | 34956 ft | 483 kts | 64° |
| 2026-05-07 12:48 | 51.32292 | 8.25849 | 34955 ft | 483 kts | 64° |
| 2026-05-07 12:49 | 51.35177 | 8.35570 | 34955 ft | 483 kts | 64° |
| 2026-05-07 12:49 | 51.38030 | 8.45222 | 34956 ft | 482 kts | 64° |
| 2026-05-07 12:50 | 51.40890 | 8.54939 | 34952 ft | 482 kts | 64° |
| 2026-05-07 12:50 | 51.43744 | 8.64675 | 34957 ft | 482 kts | 64° |
| 2026-05-07 12:51 | 51.46592 | 8.74431 | 34956 ft | 482 kts | 64° |
| 2026-05-07 12:51 | 51.49431 | 8.84195 | 34957 ft | 482 kts | 65° |
| 2026-05-07 12:52 | 51.52244 | 8.93910 | 34951 ft | 482 kts | 65° |
| 2026-05-07 12:52 | 51.55056 | 9.03692 | 34940 ft | 482 kts | 65° |
| 2026-05-07 12:53 | 51.57828 | 9.13520 | 34941 ft | 482 kts | 65° |
| 2026-05-07 12:53 | 51.60616 | 9.23357 | 34934 ft | 483 kts | 65° |
| 2026-05-07 12:54 | 51.63396 | 9.33127 | 34938 ft | 482 kts | 65° |
| 2026-05-07 12:54 | 51.65719 | 9.41310 | 34944 ft | 482 kts | 65° |
| 2026-05-07 12:55 | 51.68467 | 9.51190 | 34947 ft | 483 kts | 69° |
| 2026-05-07 12:55 | 51.70374 | 9.63370 | 34949 ft | 483 kts | 80° |
| 2026-05-07 12:56 | 51.71279 | 9.72331 | 34948 ft | 483 kts | 81° |
| 2026-05-07 12:56 | 51.72371 | 9.82968 | 34949 ft | 483 kts | 80° |
| 2026-05-07 12:57 | 51.73534 | 9.93649 | 34946 ft | 483 kts | 80° |
| 2026-05-07 12:57 | 51.74716 | 10.04324 | 34947 ft | 483 kts | 80° |
| 2026-05-07 12:58 | 51.75890 | 10.15009 | 34947 ft | 483 kts | 80° |
| 2026-05-07 12:58 | 51.77052 | 10.25704 | 34947 ft | 483 kts | 80° |
| 2026-05-07 12:59 | 51.78204 | 10.36405 | 34946 ft | 484 kts | 80° |
| 2026-05-07 12:59 | 51.79346 | 10.47124 | 34943 ft | 484 kts | 81° |
| 2026-05-07 13:00 | 51.80472 | 10.57780 | 34938 ft | 484 kts | 81° |
| 2026-05-07 13:00 | 51.81596 | 10.68509 | 34939 ft | 484 kts | 81° |
| 2026-05-07 13:01 | 51.82711 | 10.79264 | 34933 ft | 484 kts | 81° |
| 2026-05-07 13:01 | 51.83113 | 10.90100 | 34941 ft | 482 kts | 97° |
| 2026-05-07 13:02 | 51.81664 | 11.00588 | 34948 ft | 481 kts | 108° |
| 2026-05-07 13:02 | 51.79711 | 11.10943 | 34952 ft | 481 kts | 107° |
| 2026-05-07 13:03 | 51.77892 | 11.21352 | 34955 ft | 480 kts | 106° |
| 2026-05-07 13:03 | 51.76188 | 11.31727 | 34953 ft | 480 kts | 105° |
| 2026-05-07 13:04 | 51.74495 | 11.42148 | 34956 ft | 480 kts | 105° |
| 2026-05-07 13:04 | 51.72786 | 11.52582 | 34954 ft | 480 kts | 105° |
| 2026-05-07 13:05 | 51.71065 | 11.63001 | 34954 ft | 481 kts | 105° |
| 2026-05-07 13:05 | 51.69330 | 11.73431 | 34944 ft | 481 kts | 106° |
| 2026-05-07 13:06 | 51.67598 | 11.83781 | 34941 ft | 481 kts | 106° |
| 2026-05-07 13:06 | 51.65845 | 11.94189 | 34949 ft | 482 kts | 106° |
| 2026-05-07 13:07 | 51.64107 | 12.04609 | 34929 ft | 482 kts | 104° |
| 2026-05-07 13:07 | 51.62873 | 12.15214 | 34941 ft | 482 kts | 99° |
| 2026-05-07 13:08 | 51.61921 | 12.25903 | 34939 ft | 482 kts | 99° |
| 2026-05-07 13:08 | 51.60977 | 12.36515 | 34931 ft | 482 kts | 99° |
| 2026-05-07 13:09 | 51.59984 | 12.47207 | 34928 ft | 482 kts | 100° |
| 2026-05-07 13:09 | 51.58963 | 12.57937 | 34932 ft | 482 kts | 100° |
| 2026-05-07 13:10 | 51.57944 | 12.68531 | 34934 ft | 482 kts | 100° |
| 2026-05-07 13:10 | 51.56909 | 12.79194 | 34933 ft | 482 kts | 100° |
| 2026-05-07 13:11 | 51.55865 | 12.89851 | 34926 ft | 483 kts | 101° |
| 2026-05-07 13:11 | 51.54810 | 13.00517 | 34929 ft | 483 kts | 101° |
| 2026-05-07 13:12 | 51.53747 | 13.11166 | 34926 ft | 483 kts | 101° |
| 2026-05-07 13:12 | 51.52680 | 13.21749 | 34923 ft | 482 kts | 101° |
| 2026-05-07 13:13 | 51.51598 | 13.32380 | 34920 ft | 482 kts | 101° |
| 2026-05-07 13:13 | 51.50474 | 13.43008 | 34913 ft | 482 kts | 102° |
| 2026-05-07 13:14 | 51.49330 | 13.53625 | 34907 ft | 482 kts | 102° |
| 2026-05-07 13:14 | 51.48211 | 13.64191 | 34904 ft | 482 kts | 102° |
| 2026-05-07 13:15 | 51.47092 | 13.74785 | 34899 ft | 481 kts | 102° |
| 2026-05-07 13:15 | 51.45970 | 13.85374 | 34895 ft | 481 kts | 102° |
| 2026-05-07 13:16 | 51.45243 | 13.96065 | 34896 ft | 483 kts | 97° |
| 2026-05-07 13:16 | 51.44822 | 14.06839 | 34895 ft | 483 kts | 96° |
| 2026-05-07 13:17 | 51.44414 | 14.17522 | 34894 ft | 483 kts | 97° |
| 2026-05-07 13:17 | 51.43962 | 14.28284 | 34892 ft | 484 kts | 97° |
| 2026-05-07 13:18 | 51.43486 | 14.39048 | 34896 ft | 484 kts | 97° |
| 2026-05-07 13:18 | 51.42998 | 14.49816 | 34896 ft | 485 kts | 98° |
| 2026-05-07 13:19 | 51.42501 | 14.60593 | 34892 ft | 485 kts | 98° |
| 2026-05-07 13:19 | 51.41994 | 14.71372 | 34895 ft | 485 kts | 98° |
| 2026-05-07 13:20 | 51.41477 | 14.82152 | 34892 ft | 486 kts | 98° |
| 2026-05-07 13:20 | 51.40933 | 14.92893 | 34890 ft | 485 kts | 101° |
| 2026-05-07 13:21 | 51.39404 | 15.03299 | 34888 ft | 478 kts | 112° |
| 2026-05-07 13:21 | 51.37218 | 15.13349 | 34888 ft | 477 kts | 114° |
| 2026-05-07 13:22 | 51.35021 | 15.23385 | 34881 ft | 477 kts | 113° |
| 2026-05-07 13:22 | 51.32902 | 15.33396 | 34890 ft | 478 kts | 113° |
| 2026-05-07 13:23 | 51.30790 | 15.43472 | 34890 ft | 478 kts | 113° |
| 2026-05-07 13:23 | 51.28673 | 15.53536 | 34887 ft | 478 kts | 113° |
| 2026-05-07 13:24 | 51.26542 | 15.63607 | 34890 ft | 478 kts | 114° |
| 2026-05-07 13:24 | 51.24419 | 15.73584 | 34888 ft | 478 kts | 114° |
| 2026-05-07 13:25 | 51.22272 | 15.83620 | 34887 ft | 478 kts | 114° |
| 2026-05-07 13:25 | 51.20114 | 15.93656 | 34884 ft | 478 kts | 114° |
| 2026-05-07 13:26 | 51.17950 | 16.03676 | 34883 ft | 478 kts | 114° |
| 2026-05-07 13:26 | 51.15779 | 16.13677 | 34883 ft | 477 kts | 114° |
| 2026-05-07 13:27 | 51.13600 | 16.23610 | 34878 ft | 477 kts | 115° |
| 2026-05-07 13:27 | 51.11367 | 16.33568 | 34876 ft | 477 kts | 115° |
| 2026-05-07 13:28 | 51.09150 | 16.43530 | 34875 ft | 477 kts | 115° |
| 2026-05-07 13:28 | 51.06979 | 16.53453 | 34871 ft | 477 kts | 115° |
| 2026-05-07 13:29 | 51.04850 | 16.63449 | 34873 ft | 478 kts | 115° |
| 2026-05-07 13:29 | 51.02726 | 16.73451 | 34874 ft | 477 kts | 115° |
| 2026-05-07 13:30 | 51.00592 | 16.83435 | 34875 ft | 477 kts | 115° |
| 2026-05-07 13:30 | 50.98442 | 16.93434 | 34872 ft | 477 kts | 115° |
| 2026-05-07 13:31 | 50.96302 | 17.03334 | 34870 ft | 477 kts | 115° |
| 2026-05-07 13:31 | 50.94141 | 17.13280 | 34864 ft | 477 kts | 115° |
| 2026-05-07 13:32 | 50.91970 | 17.23226 | 34860 ft | 477 kts | 116° |
| 2026-05-07 13:32 | 50.89791 | 17.33164 | 34854 ft | 478 kts | 116° |
| 2026-05-07 13:33 | 50.87599 | 17.43112 | 34847 ft | 478 kts | 116° |
| 2026-05-07 13:33 | 50.85412 | 17.52990 | 34842 ft | 478 kts | 116° |
| 2026-05-07 13:34 | 50.82098 | 17.67868 | 34832 ft | 477 kts | 116° |
| 2026-05-07 13:35 | 50.79858 | 17.77747 | 34830 ft | 475 kts | 116° |
| 2026-05-07 13:35 | 50.77613 | 17.87520 | 34836 ft | 474 kts | 116° |
| 2026-05-07 13:36 | 50.75386 | 17.97318 | 34833 ft | 473 kts | 116° |
| 2026-05-07 13:36 | 50.73186 | 18.07056 | 34833 ft | 473 kts | 116° |
| 2026-05-07 13:37 | 50.70971 | 18.16841 | 34828 ft | 473 kts | 115° |
| 2026-05-07 13:37 | 50.68747 | 18.26618 | 34827 ft | 473 kts | 115° |
| 2026-05-07 13:38 | 50.66514 | 18.36392 | 34824 ft | 474 kts | 115° |
| 2026-05-07 13:38 | 50.65074 | 18.46600 | 34831 ft | 486 kts | 98° |
| 2026-05-07 13:39 | 50.65122 | 18.57321 | 34830 ft | 491 kts | 92° |
| 2026-05-07 13:39 | 50.65377 | 18.68075 | 34832 ft | 491 kts | 94° |
| 2026-05-07 13:40 | 50.65488 | 18.78819 | 34840 ft | 490 kts | 95° |
| 2026-05-07 13:40 | 50.65510 | 18.89557 | 34839 ft | 490 kts | 95° |
| 2026-05-07 13:41 | 50.65509 | 19.00294 | 34836 ft | 490 kts | 95° |
| 2026-05-07 13:41 | 50.65501 | 19.11039 | 34839 ft | 490 kts | 95° |
| 2026-05-07 13:42 | 50.65491 | 19.19974 | 34843 ft | 490 kts | 95° |
| 2026-05-07 13:42 | 50.65470 | 19.30739 | 34841 ft | 491 kts | 95° |
| 2026-05-07 13:43 | 50.65439 | 19.41487 | 34838 ft | 491 kts | 95° |
| 2026-05-07 13:43 | 50.65398 | 19.52182 | 34838 ft | 491 kts | 95° |
| 2026-05-07 13:44 | 50.65347 | 19.62945 | 34833 ft | 491 kts | 95° |
| 2026-05-07 13:44 | 50.65281 | 19.73717 | 34837 ft | 491 kts | 96° |
| 2026-05-07 13:45 | 50.65162 | 19.84506 | 34834 ft | 492 kts | 96° |
| 2026-05-07 13:45 | 50.65051 | 19.95293 | 34832 ft | 492 kts | 96° |
| 2026-05-07 13:46 | 50.64954 | 20.06091 | 34832 ft | 493 kts | 95° |
| 2026-05-07 13:46 | 50.64906 | 20.11488 | 34605 ft | 492 kts | 95° |
| 2026-05-07 13:46 | 50.64856 | 20.16827 | 34219 ft | 493 kts | 95° |
| 2026-05-07 13:46 | 50.64757 | 20.22224 | 33644 ft | 491 kts | 99° |
| 2026-05-07 13:47 | 50.64232 | 20.27487 | 32978 ft | 481 kts | 110° |
| 2026-05-07 13:47 | 50.63211 | 20.32475 | 32358 ft | 477 kts | 116° |
| 2026-05-07 13:47 | 50.61949 | 20.37282 | 31768 ft | 475 kts | 119° |
| 2026-05-07 13:47 | 50.60611 | 20.42056 | 31164 ft | 475 kts | 119° |
| 2026-05-07 13:48 | 50.59280 | 20.46829 | 30577 ft | 476 kts | 118° |
| 2026-05-07 13:48 | 50.57977 | 20.51630 | 29913 ft | 477 kts | 118° |
| 2026-05-07 13:48 | 50.56710 | 20.56430 | 29131 ft | 473 kts | 117° |
| 2026-05-07 13:48 | 50.55473 | 20.61206 | 28421 ft | 470 kts | 117° |
| 2026-05-07 13:49 | 50.54269 | 20.65888 | 27747 ft | 466 kts | 117° |
| 2026-05-07 13:49 | 50.53061 | 20.70594 | 27062 ft | 462 kts | 117° |
| 2026-05-07 13:49 | 50.51860 | 20.75266 | 26398 ft | 459 kts | 116° |
| 2026-05-07 13:49 | 50.50664 | 20.79901 | 25730 ft | 456 kts | 116° |
| 2026-05-07 13:50 | 50.49474 | 20.84497 | 25085 ft | 453 kts | 116° |
| 2026-05-07 13:50 | 50.48290 | 20.89058 | 24430 ft | 449 kts | 116° |
| 2026-05-07 13:50 | 50.47112 | 20.93586 | 23786 ft | 446 kts | 116° |
| 2026-05-07 13:50 | 50.45936 | 20.98097 | 23093 ft | 443 kts | 116° |
| 2026-05-07 13:51 | 50.44774 | 21.02547 | 22441 ft | 440 kts | 116° |
| 2026-05-07 13:51 | 50.43613 | 21.06980 | 21801 ft | 436 kts | 116° |
| 2026-05-07 13:51 | 50.42465 | 21.11357 | 21159 ft | 432 kts | 116° |
| 2026-05-07 13:51 | 50.41340 | 21.15638 | 20568 ft | 428 kts | 116° |
| 2026-05-07 13:52 | 50.40208 | 21.19938 | 19941 ft | 425 kts | 116° |
| 2026-05-07 13:52 | 50.39072 | 21.24189 | 19321 ft | 421 kts | 116° |
| 2026-05-07 13:52 | 50.37937 | 21.28404 | 18709 ft | 418 kts | 115° |
| 2026-05-07 13:52 | 50.36812 | 21.32589 | 18079 ft | 414 kts | 115° |
| 2026-05-07 13:53 | 50.35698 | 21.36748 | 17413 ft | 410 kts | 115° |
| 2026-05-07 13:53 | 50.34601 | 21.40852 | 16789 ft | 406 kts | 115° |
| 2026-05-07 13:53 | 50.33519 | 21.44906 | 16178 ft | 401 kts | 115° |
| 2026-05-07 13:53 | 50.32448 | 21.48914 | 15601 ft | 397 kts | 115° |
| 2026-05-07 13:54 | 50.31400 | 21.52835 | 15025 ft | 393 kts | 116° |
| 2026-05-07 13:54 | 50.30347 | 21.56764 | 14465 ft | 389 kts | 116° |
| 2026-05-07 13:54 | 50.29246 | 21.60602 | 13911 ft | 384 kts | 120° |
| 2026-05-07 13:54 | 50.27946 | 21.64222 | 13385 ft | 378 kts | 124° |
| 2026-05-07 13:55 | 50.26556 | 21.67707 | 13083 ft | 376 kts | 125° |
| 2026-05-07 13:55 | 50.25165 | 21.71095 | 12974 ft | 360 kts | 126° |
| 2026-05-07 13:55 | 50.23843 | 21.74310 | 12841 ft | 343 kts | 126° |
| 2026-05-07 13:55 | 50.22584 | 21.77381 | 12717 ft | 327 kts | 126° |
| 2026-05-07 13:56 | 50.21384 | 21.80315 | 12577 ft | 314 kts | 126° |
| 2026-05-07 13:56 | 50.20248 | 21.83168 | 12260 ft | 308 kts | 121° |
| 2026-05-07 13:56 | 50.19578 | 21.86301 | 11730 ft | 312 kts | 101° |
| 2026-05-07 13:56 | 50.19383 | 21.89704 | 11161 ft | 316 kts | 94° |
| 2026-05-07 13:57 | 50.19336 | 21.93152 | 10608 ft | 319 kts | 92° |
| 2026-05-07 13:57 | 50.19320 | 21.96627 | 10130 ft | 319 kts | 92° |
| 2026-05-07 13:57 | 50.19303 | 22.00098 | 9555 ft | 320 kts | 92° |
| 2026-05-07 13:57 | 50.19278 | 22.03577 | 9001 ft | 321 kts | 92° |
| 2026-05-07 13:58 | 50.19246 | 22.07067 | 8438 ft | 321 kts | 92° |
| 2026-05-07 13:58 | 50.19208 | 22.10555 | 7908 ft | 322 kts | 92° |
| 2026-05-07 13:58 | 50.19167 | 22.14049 | 7380 ft | 322 kts | 92° |
| 2026-05-07 13:58 | 50.19119 | 22.17471 | 7002 ft | 317 kts | 93° |
| 2026-05-07 13:59 | 50.19062 | 22.20907 | 6535 ft | 316 kts | 93° |
| 2026-05-07 13:59 | 50.19002 | 22.24340 | 6035 ft | 316 kts | 93° |
| 2026-05-07 13:59 | 50.18938 | 22.27727 | 5806 ft | 305 kts | 95° |
| 2026-05-07 13:59 | 50.18559 | 22.30923 | 5401 ft | 295 kts | 116° |
| 2026-05-07 14:00 | 50.17357 | 22.33369 | 4972 ft | 281 kts | 147° |
| 2026-05-07 14:00 | 50.15682 | 22.34658 | 4584 ft | 260 kts | 166° |
| 2026-05-07 14:00 | 50.13963 | 22.35096 | 4213 ft | 242 kts | 185° |
| 2026-05-07 14:00 | 50.12390 | 22.34486 | 3833 ft | 226 kts | 210° |
| 2026-05-07 14:01 | 50.11268 | 22.32964 | 3532 ft | 205 kts | 236° |
| 2026-05-07 14:01 | 50.10800 | 22.30985 | 3242 ft | 195 kts | 261° |
| 2026-05-07 14:01 | 50.10715 | 22.28869 | 2984 ft | 197 kts | 264° |
| 2026-05-07 14:01 | 50.10660 | 22.26749 | 2686 ft | 193 kts | 266° |
| 2026-05-07 14:02 | 50.10675 | 22.24738 | 2520 ft | 174 kts | 269° |
| 2026-05-07 14:02 | 50.10705 | 22.22932 | 2483 ft | 164 kts | 268° |
| 2026-05-07 14:02 | 50.10728 | 22.21156 | 2495 ft | 165 kts | 268° |
| 2026-05-07 14:02 | 50.10753 | 22.19369 | 2507 ft | 165 kts | 268° |
| 2026-05-07 14:03 | 50.10777 | 22.17589 | 2344 ft | 162 kts | 268° |
| 2026-05-07 14:03 | 50.10803 | 22.15854 | 2115 ft | 158 kts | 267° |
| 2026-05-07 14:03 | 50.10824 | 22.14181 | 1887 ft | 154 kts | 269° |
| 2026-05-07 14:03 | 50.10848 | 22.12515 | 1704 ft | 153 kts | 268° |
| 2026-05-07 14:04 | 50.10871 | 22.10848 | 1495 ft | 154 kts | 265° |
| 2026-05-07 14:04 | 50.10886 | 22.09166 | 1270 ft | 159 kts | 268° |
| 2026-05-07 14:04 | 50.10923 | 22.07437 | 1029 ft | 158 kts | 267° |
| 2026-05-07 14:04 | 50.10940 | 22.05717 | 855 ft | 160 kts | 268° |
| 2026-05-07 14:05 | 50.10974 | 22.04008 | 695 ft | 147 kts | 265° |
| 2026-05-07 14:05 | 50.10985 | 22.02700 | 699 ft | 98 kts | 271° |
| 2026-05-07 14:05 | 50.10997 | 22.01840 | 700 ft | 62 kts | 272° |
| 2026-05-07 14:05 | 50.11002 | 22.01443 | 711 ft | 25 kts | 271° |
| 2026-05-07 14:06 | 50.11039 | 22.01199 | 713 ft | 21 kts | 294° |
| 2026-05-07 14:06 | 50.11097 | 22.01032 | 716 ft | 11 kts | 304° |
| 2026-05-07 14:06 | 50.11131 | 22.00998 | 715 ft | 3 kts | 350° |
| 2026-05-07 14:06 | 50.11147 | 22.00998 | 714 ft | 2 kts | 359° |
| 2026-05-07 14:07 | 50.11181 | 22.00995 | 715 ft | 5 kts | 358° |
| 2026-05-07 14:07 | 50.11213 | 22.00995 | 715 ft | 5 kts | 1° |
| 2026-05-07 14:07 | 50.11261 | 22.00997 | 711 ft | 1 kts | 1° |